Time;durP1;ratioP1;P1;durP2;ratioP2;P2;SDS_P1;SDS_P2;PMS_P1;PMS_P2;Temp;Humidity;BMP_temperature;BMP_pressure;BME280_temperature;BME280_humidity;BME280_pressure;Samples;Min_cycle;Max_cycle;Signal;HPM_P1;HPM_P2
2021/04/19 00:00:29;;;;;;;16.93;13.50;;;;;;;;;;4809449;28;20641;-77
2021/04/19 00:02:51;;;;;;;17.43;12.83;;;;;;;;;;4813894;28;20246;-82
2021/04/19 00:05:16;;;;;;;14.60;11.80;;;4.50;99.90;;;;;;4817695;28;20686;-81
2021/04/19 00:07:38;;;;;;;18.57;12.73;;;4.70;99.90;;;;;;4818273;28;20254;-79
2021/04/19 00:10:01;;;;;;;17.50;13.27;;;4.70;99.90;;;;;;4819114;28;20247;-77
2021/04/19 00:12:24;;;;;;;18.10;13.90;;;4.80;99.90;;;;;;4818745;28;20203;-81
2021/04/19 00:14:46;;;;;;;16.93;12.87;;;;;;;;;;4819010;28;20568;-80
2021/04/19 00:17:08;;;;;;;16.30;12.80;;;4.70;99.90;;;;;;4800213;28;20268;-78
2021/04/19 00:19:30;;;;;;;19.40;13.10;;;4.40;99.90;;;;;;4804829;28;20658;-81
2021/04/19 00:21:53;;;;;;;17.60;13.50;;;4.50;99.90;;;;;;4808244;28;20191;-82
2021/04/19 00:24:15;;;;;;;17.07;13.20;;;4.20;99.90;;;;;;4800313;28;20701;-81
2021/04/19 00:26:38;;;;;;;18.77;13.77;;;4.40;99.90;;;;;;4812480;28;20833;-82
2021/04/19 00:29:01;;;;;;;19.57;13.93;;;;;;;;;;4818087;28;20211;-76
2021/04/19 00:31:23;;;;;;;17.40;13.17;;;4.30;99.90;;;;;;4821614;28;20250;-81
2021/04/19 00:33:45;;;;;;;19.10;14.10;;;4.30;99.90;;;;;;4818939;28;20234;-81
2021/04/19 00:36:08;;;;;;;17.40;14.03;;;4.00;99.90;;;;;;4814008;28;20278;-82
2021/04/19 00:38:30;;;;;;;19.97;13.93;;;;;;;;;;4828125;28;20211;-81
2021/04/19 00:40:53;;;;;;;16.70;13.63;;;4.10;99.90;;;;;;4821099;28;20231;-82
2021/04/19 00:43:17;;;;;;;20.37;15.40;;;3.90;99.90;;;;;;4818553;28;20253;-81
2021/04/19 00:45:39;;;;;;;21.73;16.53;;;4.10;99.90;;;;;;4793628;28;20271;-80
2021/04/19 00:48:04;;;;;;;21.83;16.63;;;4.00;99.90;;;;;;4821096;28;20203;-75
2021/04/19 00:50:31;;;;;;;22.47;17.97;;;4.10;99.90;;;;;;4822677;28;20250;-80
2021/04/19 00:52:54;;;;;;;21.73;16.90;;;3.80;99.90;;;;;;4822566;28;20664;-81
2021/04/19 00:55:16;;;;;;;18.23;15.53;;;4.00;99.90;;;;;;4802655;28;20196;-78
2021/04/19 00:57:39;;;;;;;19.93;15.30;;;4.00;99.90;;;;;;4809313;28;20191;-81
2021/04/19 01:00:03;;;;;;;23.70;17.97;;;4.00;99.90;;;;;;4804518;28;20199;-77
2021/04/19 01:02:27;;;;;;;18.47;15.00;;;4.10;99.90;;;;;;4818894;28;20203;-82
2021/04/19 01:04:49;;;;;;;19.77;15.30;;;4.20;99.90;;;;;;4822754;28;20223;-82
2021/04/19 01:07:12;;;;;;;17.73;13.57;;;;;;;;;;4820313;28;20254;-82
2021/04/19 01:09:36;;;;;;;16.53;12.73;;;4.20;99.90;;;;;;4804049;28;20804;-82
2021/04/19 01:11:58;;;;;;;16.90;13.37;;;;;;;;;;4820931;28;20230;-80
2021/04/19 01:14:21;;;;;;;19.53;15.10;;;;;;;;;;4822560;28;20192;-77
2021/04/19 01:16:44;;;;;;;19.97;14.80;;;4.00;99.90;;;;;;4819458;28;20292;-81
2021/04/19 01:19:06;;;;;;;19.43;16.00;;;;;;;;;;4822244;28;20650;-80
2021/04/19 01:21:29;;;;;;;19.97;14.40;;;4.10;99.90;;;;;;4820531;28;20222;-81
2021/04/19 01:23:52;;;;;;;18.60;15.07;;;;;;;;;;4820400;28;20274;-81
2021/04/19 01:26:17;;;;;;;20.93;16.27;;;4.30;99.90;;;;;;4820206;28;20258;-77
2021/04/19 01:28:40;;;;;;;25.13;17.60;;;4.10;99.90;;;;;;4820675;28;20203;-81
2021/04/19 01:31:04;;;;;;;23.90;18.37;;;4.80;99.90;;;;;;4803959;28;20200;-78
2021/04/19 01:33:32;;;;;;;21.57;17.60;;;3.90;99.90;;;;;;4836126;28;20196;-78
2021/04/19 01:35:55;;;;;;;21.97;17.47;;;4.10;99.90;;;;;;4798240;28;20256;-81
2021/04/19 01:38:22;;;;;;;20.97;16.20;;;4.50;99.90;;;;;;4785575;28;20201;-80
2021/04/19 01:40:44;;;;;;;20.90;15.73;;;3.70;99.90;;;;;;4787877;28;20220;-80
2021/04/19 01:43:08;;;;;;;19.67;15.67;;;4.50;99.90;;;;;;4785501;28;20196;-81
2021/04/19 01:45:57;;;;;;;19.90;15.50;;;;;;;;;;4811423;28;20246;-82
2021/04/19 01:48:21;;;;;;;18.97;15.27;;;4.10;99.90;;;;;;4820073;28;20701;-78
2021/04/19 01:50:43;;;;;;;19.93;14.50;;;4.10;99.90;;;;;;4817899;28;20613;-80
2021/04/19 01:53:08;;;;;;;18.03;14.10;;;4.00;99.90;;;;;;4819757;28;20272;-82
2021/04/19 01:55:33;;;;;;;19.97;14.77;;;4.40;99.90;;;;;;4810917;28;20208;-82
2021/04/19 01:57:59;;;;;;;18.77;15.30;;;3.90;99.90;;;;;;4801621;28;20662;-81
2021/04/19 02:00:25;;;;;;;22.30;17.23;;;4.50;99.90;;;;;;4818650;28;20204;-79
2021/04/19 02:02:59;;;;;;;22.13;16.93;;;4.20;99.90;;;;;;4807535;28;20203;-82
2021/04/19 02:05:31;;;;;;;24.03;17.80;;;4.40;99.90;;;;;;4801108;28;20228;-82
2021/04/19 02:07:59;;;;;;;21.77;17.10;;;4.40;99.90;;;;;;4818407;28;20187;-82
2021/04/19 02:10:28;;;;;;;22.77;17.43;;;4.40;99.90;;;;;;4814354;28;20200;-82
2021/04/19 02:12:57;;;;;;;19.63;15.83;;;4.70;99.90;;;;;;4833994;28;20206;-81
2021/04/19 02:15:27;;;;;;;23.07;16.80;;;4.20;99.90;;;;;;4818325;28;20227;-80
2021/04/19 02:18:11;;;;;;;21.50;16.80;;;4.30;99.90;;;;;;4819759;28;20200;-80
2021/04/19 02:20:42;;;;;;;23.90;17.53;;;4.50;99.90;;;;;;4816511;28;20250;-80
2021/04/19 02:23:09;;;;;;;21.57;16.43;;;4.00;99.90;;;;;;4799857;28;20634;-81
2021/04/19 02:25:37;;;;;;;20.07;16.83;;;4.90;99.90;;;;;;4820582;28;20215;-80
2021/04/19 02:28:06;;;;;;;20.40;17.70;;;5.00;99.90;;;;;;4819571;28;20203;-80
2021/04/19 02:30:33;;;;;;;22.20;18.07;;;4.60;99.90;;;;;;4789402;28;20251;-81
2021/04/19 02:32:57;;;;;;;22.17;17.57;;;4.70;99.90;;;;;;4816496;28;20226;-82
2021/04/19 02:35:24;;;;;;;23.33;16.90;;;4.50;99.90;;;;;;4818662;28;20592;-83
2021/04/19 02:38:00;;;;;;;19.63;16.63;;;4.60;99.90;;;;;;4816536;28;20191;-83
2021/04/19 02:40:27;;;;;;;20.33;17.03;;;4.60;99.90;;;;;;4804236;28;20903;-80
2021/04/19 02:42:53;;;;;;;18.10;15.27;;;4.50;99.90;;;;;;4819150;28;20257;-80
2021/04/19 02:45:17;;;;;;;19.63;16.30;;;4.50;99.90;;;;;;4805862;28;20216;-81
2021/04/19 02:47:49;;;;;;;20.27;16.17;;;4.30;99.90;;;;;;4800175;28;20228;-80
2021/04/19 02:50:35;;;;;;;19.20;15.10;;;4.40;99.90;;;;;;4810553;28;20195;-81
2021/04/19 02:52:58;;;;;;;18.40;14.27;;;4.30;99.90;;;;;;4816173;28;20277;-81
2021/04/19 02:55:24;;;;;;;16.67;13.43;;;4.20;99.90;;;;;;4802201;28;20188;-80
2021/04/19 02:57:51;;;;;;;16.73;13.57;;;4.30;99.90;;;;;;4818949;28;20195;-79
2021/04/19 03:00:15;;;;;;;16.70;13.73;;;4.30;99.90;;;;;;4820031;28;20195;-80
2021/04/19 03:02:39;;;;;;;17.40;13.43;;;3.70;99.90;;;;;;4816708;28;20218;-81
2021/04/19 03:05:04;;;;;;;17.83;13.90;;;4.20;99.90;;;;;;4814962;28;20717;-76
2021/04/19 03:07:34;;;;;;;15.80;13.03;;;5.10;99.90;;;;;;4818436;28;20199;-81
2021/04/19 03:10:02;;;;;;;17.47;13.87;;;4.20;99.90;;;;;;4801852;28;20191;-80
2021/04/19 03:12:31;;;;;;;17.90;14.10;;;4.30;99.90;;;;;;4818827;28;20199;-80
2021/04/19 03:15:01;;;;;;;17.93;14.87;;;4.00;99.90;;;;;;4804096;28;20194;-80
2021/04/19 03:17:28;;;;;;;18.47;14.67;;;4.20;99.90;;;;;;4799967;28;20216;-81
2021/04/19 03:20:14;;;;;;;17.23;13.70;;;4.30;99.90;;;;;;4806253;28;20230;-80
2021/04/19 03:22:48;;;;;;;18.53;14.27;;;4.40;99.90;;;;;;4805495;28;20235;-80
2021/04/19 03:25:14;;;;;;;18.07;14.57;;;4.40;99.90;;;;;;4805877;28;20253;-80
2021/04/19 03:27:41;;;;;;;21.20;15.97;;;4.50;99.90;;;;;;4813831;28;20232;-82
2021/04/19 03:30:08;;;;;;;21.70;17.30;;;4.90;99.90;;;;;;4816500;28;20199;-80
2021/04/19 03:32:42;;;;;;;22.30;17.40;;;4.50;99.90;;;;;;4829578;28;20556;-82
2021/04/19 03:35:09;;;;;;;21.20;16.60;;;4.60;99.90;;;;;;4814013;28;20290;-80
2021/04/19 03:37:35;;;;;;;20.47;16.93;;;4.60;99.90;;;;;;4816351;28;20207;-78
2021/04/19 03:40:04;;;;;;;22.00;16.97;;;4.50;99.90;;;;;;4798631;28;20196;-81
2021/04/19 03:42:31;;;;;;;23.03;18.07;;;4.60;99.90;;;;;;4799559;28;20207;-80
2021/04/19 03:44:56;;;;;;;22.80;18.50;;;4.40;99.90;;;;;;4815464;28;20550;-81
2021/04/19 03:47:39;;;;;;;21.07;16.33;;;4.80;99.90;;;;;;4818358;28;20191;-80
2021/04/19 03:50:20;;;;;;;21.13;17.27;;;5.30;99.90;;;;;;4817826;28;20207;-79
2021/04/19 03:52:52;;;;;;;23.40;17.67;;;4.70;99.90;;;;;;4799510;28;20215;-80
2021/04/19 03:55:15;;;;;;;26.27;19.13;;;4.60;99.90;;;;;;4815471;28;20271;-81
2021/04/19 03:57:41;;;;;;;23.13;18.17;;;5.20;99.90;;;;;;4818260;28;20211;-81
2021/04/19 04:00:08;;;;;;;26.93;19.77;;;4.60;99.90;;;;;;4817473;28;20195;-81
2021/04/19 04:02:42;;;;;;;23.50;18.13;;;4.80;99.90;;;;;;4815990;28;20603;-81
2021/04/19 04:05:07;;;;;;;22.90;18.17;;;4.70;99.90;;;;;;4807181;28;20267;-81
2021/04/19 04:07:47;;;;;;;26.23;19.83;;;4.70;99.90;;;;;;4798728;28;20196;-80
2021/04/19 04:10:13;;;;;;;25.27;19.47;;;4.70;99.90;;;;;;4801427;28;20246;-81
2021/04/19 04:12:56;;;;;;;28.27;20.20;;;4.80;99.90;;;;;;4817978;28;20545;-82
2021/04/19 04:15:51;;;;;;;31.23;23.60;;;4.70;99.90;;;;;;4818188;28;20185;-81
2021/04/19 04:18:34;;;;;;;34.13;24.93;;;5.20;99.90;;;;;;4818581;28;20179;-81
2021/04/19 04:21:19;;;;;;;30.07;24.17;;;4.90;99.90;;;;;;4815705;28;20186;-77
2021/04/19 04:24:06;;;;;;;34.53;24.63;;;5.80;99.90;;;;;;4806130;28;20188;-82
2021/04/19 04:26:52;;;;;;;31.93;24.63;;;4.90;99.90;;;;;;4799630;28;20214;-81
2021/04/19 04:29:34;;;;;;;39.93;29.87;;;5.20;99.90;;;;;;4802425;28;20202;-80
2021/04/19 04:32:32;;;;;;;38.27;28.63;;;5.30;99.90;;;;;;4817953;28;20192;-78
2021/04/19 04:35:11;;;;;;;34.20;25.87;;;5.30;99.90;;;;;;4811613;28;20223;-82
2021/04/19 04:37:36;;;;;;;34.17;26.27;;;5.40;99.90;;;;;;4799198;28;20212;-81
2021/04/19 04:40:09;;;;;;;30.90;25.10;;;5.50;99.90;;;;;;4804515;28;20281;-81
2021/04/19 04:42:36;;;;;;;26.27;21.63;;;5.70;99.90;;;;;;4798986;28;20200;-80
2021/04/19 04:44:58;;;;;;;25.63;21.17;;;5.70;99.90;;;;;;4833437;28;20288;-80
2021/04/19 04:47:28;;;;;;;23.43;20.23;;;5.70;99.90;;;;;;4818879;28;20272;-79
2021/04/19 04:49:59;;;;;;;22.73;18.33;;;5.80;99.90;;;;;;4801410;28;20204;-80
2021/04/19 04:52:22;;;;;;;24.90;18.80;;;5.80;99.90;;;;;;4816368;28;20223;-79
2021/04/19 04:54:49;;;;;;;22.80;19.43;;;5.90;99.90;;;;;;4819141;28;20187;-80
2021/04/19 04:57:15;;;;;;;23.70;19.37;;;5.90;99.90;;;;;;4801355;28;20553;-81
2021/04/19 04:59:40;;;;;;;22.37;18.47;;;5.90;99.90;;;;;;4818856;28;20188;-81
2021/04/19 05:02:02;;;;;;;22.53;18.47;;;6.00;99.90;;;;;;4796510;28;20211;-75
2021/04/19 05:04:28;;;;;;;21.93;18.37;;;6.20;99.90;;;;;;4818342;28;20191;-80
2021/04/19 05:06:50;;;;;;;20.10;17.90;;;5.90;99.90;;;;;;4808854;28;20224;-78
2021/04/19 05:09:13;;;;;;;20.17;17.17;;;6.10;99.90;;;;;;4800016;28;20208;-79
2021/04/19 05:11:35;;;;;;;20.90;17.63;;;6.20;99.90;;;;;;4783574;28;20671;-80
2021/04/19 05:14:01;;;;;;;20.43;17.67;;;6.20;99.90;;;;;;4803631;28;20219;-80
2021/04/19 05:16:28;;;;;;;19.37;17.00;;;6.30;99.90;;;;;;4802301;28;20234;-78
2021/04/19 05:18:50;;;;;;;20.70;17.53;;;6.40;99.90;;;;;;4815654;28;20258;-79
2021/04/19 05:21:12;;;;;;;20.17;17.10;;;6.40;99.90;;;;;;4804091;28;20546;-78
2021/04/19 05:23:35;;;;;;;19.10;16.23;;;6.50;99.90;;;;;;4813081;28;20250;-79
2021/04/19 05:25:57;;;;;;;18.00;15.90;;;6.50;99.90;;;;;;4799994;28;20251;-79
2021/04/19 05:28:19;;;;;;;17.00;14.80;;;6.50;99.90;;;;;;4820466;28;20234;-78
2021/04/19 05:30:42;;;;;;;17.53;15.13;;;6.60;99.90;;;;;;4819908;28;20347;-79
2021/04/19 05:33:07;;;;;;;16.63;14.57;;;6.60;99.90;;;;;;4817069;28;20203;-78
2021/04/19 05:35:31;;;;;;;18.60;16.33;;;6.60;99.90;;;;;;4808078;28;20273;-79
2021/04/19 05:37:53;;;;;;;19.37;16.37;;;6.00;99.90;;;;;;4802510;28;20251;-79
2021/04/19 05:40:17;;;;;;;18.73;15.87;;;6.60;99.90;;;;;;4809475;28;20661;-79
2021/04/19 05:42:39;;;;;;;18.57;15.80;;;;;;;;;;4798757;28;20255;-79
2021/04/19 05:45:01;;;;;;;18.70;16.43;;;7.10;99.90;;;;;;4821143;28;20184;-78
2021/04/19 05:47:23;;;;;;;18.03;15.97;;;6.80;99.90;;;;;;4821143;28;20211;-80
2021/04/19 05:49:47;;;;;;;23.07;19.53;;;6.90;99.90;;;;;;4820556;28;20192;-82
2021/04/19 05:52:11;;;;;;;22.17;19.80;;;6.70;99.90;;;;;;4821049;28;20230;-81
2021/04/19 05:54:36;;;;;;;23.10;20.43;;;7.10;99.90;;;;;;4821524;28;20645;-82
2021/04/19 05:57:16;;;;;;;21.07;18.80;;;7.00;99.90;;;;;;4816535;28;20191;-79
2021/04/19 05:59:58;;;;;;;20.90;18.67;;;7.00;99.90;;;;;;4808776;28;20249;-78
2021/04/19 06:02:29;;;;;;;21.37;18.77;;;7.20;99.90;;;;;;4790890;28;21198;-80
2021/04/19 06:04:57;;;;;;;20.90;18.63;;;6.90;99.90;;;;;;4799257;28;20196;-79
2021/04/19 06:07:28;;;;;;;20.80;17.47;;;7.00;97.00;;;;;;4799187;28;20252;-80
2021/04/19 06:10:18;;;;;;;21.10;18.80;;;7.30;97.70;;;;;;4809714;28;20207;-85
2021/04/19 06:12:50;;;;;;;23.50;19.20;;;6.90;93.30;;;;;;4808642;28;20644;-79
2021/04/19 06:15:17;;;;;;;22.47;18.83;;;7.00;99.00;;;;;;4800170;28;20200;-81
2021/04/19 06:17:43;;;;;;;21.17;18.73;;;6.90;93.60;;;;;;4801130;28;20259;-85
2021/04/19 06:20:09;;;;;;;22.17;19.40;;;6.30;97.80;;;;;;4800549;28;20200;-84
2021/04/19 06:22:31;;;;;;;23.10;19.80;;;6.80;99.90;;;;;;4805125;28;20204;-85
2021/04/19 06:24:53;;;;;;;21.87;19.43;;;6.80;99.90;;;;;;4800286;28;20560;-84
2021/04/19 06:27:19;;;;;;;24.07;20.57;;;6.60;99.90;;;;;;4803354;28;20220;-86
2021/04/19 06:29:41;;;;;;;23.47;21.03;;;6.70;99.90;;;;;;4804618;28;20214;-84
2021/04/19 06:32:04;;;;;;;24.30;21.77;;;8.20;99.90;;;;;;4798454;28;20199;-77
2021/04/19 06:34:27;;;;;;;26.23;22.90;;;6.60;99.90;;;;;;4803423;28;20784;-78
2021/04/19 06:36:51;;;;;;;26.37;22.43;;;6.80;99.90;;;;;;4800088;28;20192;-79
2021/04/19 06:39:16;;;;;;;25.07;22.20;;;6.70;99.90;;;;;;4820538;28;20215;-81
2021/04/19 06:41:38;;;;;;;27.10;24.33;;;6.80;99.90;;;;;;4819533;28;20262;-79
2021/04/19 06:44:01;;;;;;;25.07;21.07;;;6.90;99.90;;;;;;4801663;28;20270;-81
2021/04/19 06:46:26;;;;;;;22.30;18.37;;;6.90;99.90;;;;;;4818612;28;20223;-81
2021/04/19 06:48:49;;;;;;;23.43;19.73;;;7.00;99.90;;;;;;4802572;28;20200;-83
2021/04/19 06:51:11;;;;;;;21.07;17.33;;;7.00;99.90;;;;;;4800706;28;20192;-82
2021/04/19 06:53:35;;;;;;;21.37;19.03;;;7.20;99.90;;;;;;4834057;28;20637;-83
2021/04/19 06:55:58;;;;;;;19.67;17.57;;;7.20;99.90;;;;;;4777573;28;20201;-84
2021/04/19 06:58:21;;;;;;;20.87;18.47;;;7.30;99.90;;;;;;4820132;28;20191;-82
2021/04/19 07:00:45;;;;;;;22.10;19.10;;;7.30;99.90;;;;;;4817698;28;20639;-80
2021/04/19 07:03:07;;;;;;;21.83;19.40;;;7.80;99.90;;;;;;4816960;28;20694;-79
2021/04/19 07:05:31;;;;;;;18.40;16.43;;;7.80;99.90;;;;;;4818564;28;20188;-78
2021/04/19 07:08:01;;;;;;;19.90;17.80;;;7.80;99.90;;;;;;4818005;28;20289;-80
2021/04/19 07:10:25;;;;;;;19.27;17.23;;;7.80;99.90;;;;;;4812945;28;20257;-77
2021/04/19 07:12:47;;;;;;;18.83;16.90;;;7.70;99.90;;;;;;4818486;28;20804;-77
2021/04/19 07:15:10;;;;;;;25.67;23.00;;;7.90;99.90;;;;;;4814684;28;20696;-79
2021/04/19 07:17:32;;;;;;;30.03;26.83;;;7.80;99.90;;;;;;4808147;28;20575;-79
2021/04/19 07:19:54;;;;;;;29.73;25.67;;;7.20;99.90;;;;;;4819372;28;20576;-80
2021/04/19 07:22:17;;;;;;;25.67;23.00;;;8.40;99.90;;;;;;4818617;28;20218;-79
2021/04/19 07:24:39;;;;;;;25.37;22.63;;;7.70;99.90;;;;;;4813139;28;20219;-80
2021/04/19 07:27:03;;;;;;;24.63;22.00;;;7.30;99.90;;;;;;4812860;28;20227;-78
2021/04/19 07:29:26;;;;;;;29.00;25.90;;;7.00;99.90;;;;;;4815956;28;20191;-82
2021/04/19 07:31:49;;;;;;;36.93;33.03;;;7.90;99.90;;;;;;4808930;28;20227;-81
2021/04/19 07:34:16;;;;;;;28.77;25.73;;;8.00;99.90;;;;;;4814359;28;20208;-80
2021/04/19 07:36:39;;;;;;;24.90;22.33;;;;;;;;;;4791739;28;20193;-77
2021/04/19 07:39:03;;;;;;;23.90;21.43;;;8.20;99.90;;;;;;4814789;28;20195;-80
2021/04/19 07:41:45;;;;;;;23.60;21.17;;;8.20;99.90;;;;;;4814611;28;20247;-80
2021/04/19 07:44:08;;;;;;;26.10;21.57;;;8.40;99.90;;;;;;4814031;28;20179;-80
2021/04/19 07:46:30;;;;;;;25.17;22.50;;;;;;;;;;4811479;28;20684;-81
2021/04/19 07:48:53;;;;;;;23.40;21.07;;;8.40;99.90;;;;;;4816365;28;20238;-80
2021/04/19 07:51:38;;;;;;;22.30;19.97;;;8.80;99.90;;;;;;4818070;28;20254;-80
2021/04/19 07:54:22;;;;;;;19.87;17.90;;;9.40;99.90;;;;;;4791011;28;20196;-78
2021/04/19 07:56:45;;;;;;;18.97;16.97;;;9.50;99.90;;;;;;4812274;28;20303;-77
2021/04/19 07:59:22;;;;;;;16.43;14.47;;;9.60;99.90;;;;;;4813280;28;20253;-82
2021/04/19 08:01:56;;;;;;;13.67;12.23;;;10.30;99.90;;;;;;4814698;28;20253;-79
2021/04/19 08:04:18;;;;;;;12.47;11.27;;;;;;;;;;4812178;28;20207;-81
2021/04/19 08:06:40;;;;;;;11.13;10.00;;;10.80;85.70;;;;;;4788638;28;20220;-83
2021/04/19 08:09:05;;;;;;;9.63;8.73;;;11.10;73.40;;;;;;4810749;28;20187;-80
2021/04/19 08:11:27;;;;;;;7.30;6.60;;;11.30;56.30;;;;;;4806990;28;20677;-84
2021/04/19 08:13:50;;;;;;;6.87;6.30;;;11.30;26.30;;;;;;4814390;28;20195;-81
2021/04/19 08:16:18;;;;;;;7.03;6.40;;;11.30;13.00;;;;;;4812961;28;20195;-82
2021/04/19 08:18:40;;;;;;;6.83;6.17;;;;;;;;;;4813942;28;20607;-81
2021/04/19 08:21:03;;;;;;;6.33;5.83;;;11.50;18.70;;;;;;4818192;28;20211;-79
2021/04/19 08:23:25;;;;;;;7.33;6.67;;;11.80;9.50;;;;;;4818457;28;20188;-77
2021/04/19 08:25:49;;;;;;;4.97;4.57;;;12.30;5.00;;;;;;4814771;28;20679;-79
2021/04/19 08:28:14;;;;;;;4.50;4.13;;;12.70;6.90;;;;;;4812946;28;20293;-78
2021/04/19 08:30:37;;;;;;;3.37;3.13;;;13.50;1.00;;;;;;4815786;28;20689;-78
2021/04/19 08:33:00;;;;;;;2.83;2.63;;;13.70;1.00;;;;;;4815927;28;20204;-77
2021/04/19 08:35:24;;;;;;;2.57;2.37;;;13.80;1.00;;;;;;4816420;28;20219;-76
2021/04/19 08:37:47;;;;;;;2.30;2.17;;;13.90;99.90;;;;;;4817268;28;20254;-77
2021/04/19 08:40:13;;;;;;;2.20;2.07;;;13.40;99.90;;;;;;4812635;28;20215;-78
2021/04/19 08:42:37;;;;;;;2.10;2.00;;;14.20;49.00;;;;;;4816543;28;20243;-76
2021/04/19 08:45:00;;;;;;;2.20;2.07;;;15.70;1.00;;;;;;4816170;28;20207;-77
2021/04/19 08:47:27;;;;;;;2.13;2.03;;;13.80;1.00;;;;;;4814926;28;20215;-76
2021/04/19 08:49:50;;;;;;;1.87;1.77;;;13.70;99.90;;;;;;4818671;28;20191;-76
2021/04/19 08:52:14;;;;;;;2.00;1.90;;;13.70;1.00;;;;;;4801682;28;20204;-76
2021/04/19 08:54:36;;;;;;;1.70;1.60;;;13.30;1.00;;;;;;4801330;28;20259;-74
2021/04/19 08:56:59;;;;;;;1.53;1.47;;;13.70;1.00;;;;;;4814966;28;20713;-75
2021/04/19 08:59:22;;;;;;;1.43;1.33;;;14.10;6.60;;;;;;4821860;28;20207;-75
2021/04/19 09:01:45;;;;;;;1.53;1.43;;;;;;;;;;4817958;28;20245;-77
2021/04/19 09:04:08;;;;;;;1.60;1.50;;;14.90;1.00;;;;;;4801293;28;20200;-76
2021/04/19 09:06:41;;;;;;;1.17;1.13;;;15.80;99.90;;;;;;4815495;28;20205;-74
2021/04/19 09:09:06;;;;;;;1.50;1.40;;;15.70;99.90;;;;;;4802927;28;20561;-74
2021/04/19 09:11:29;;;;;;;1.20;1.20;;;;;;;;;;4799828;28;20196;-75
2021/04/19 09:14:03;;;;;;;0.93;0.93;;;15.80;1.00;;;;;;4801356;28;20694;-74
2021/04/19 09:16:26;;;;;;;0.83;0.83;;;;;;;;;;4815243;28;20243;-78
2021/04/19 09:18:57;;;;;;;0.80;0.80;;;15.30;1.00;;;;;;4819071;28;20200;-76
2021/04/19 09:21:37;;;;;;;1.03;1.03;;;14.90;1.00;;;;;;4819811;28;20195;-76
2021/04/19 09:24:00;;;;;;;2.07;1.30;;;14.90;1.00;;;;;;4818807;28;20191;-75
2021/04/19 09:26:43;;;;;;;1.20;1.20;;;14.20;99.90;;;;;;4819822;28;20200;-77
2021/04/19 09:29:05;;;;;;;1.50;1.40;;;;;;;;;;4816486;28;20184;-75
2021/04/19 09:31:58;;;;;;;1.23;1.20;;;15.20;83.00;;;;;;4813943;28;20735;-76
2021/04/19 09:34:37;;;;;;;1.90;1.77;;;14.50;99.90;;;;;;4801590;28;20231;-77
2021/04/19 09:36:59;;;;;;;2.27;2.17;;;14.70;99.90;;;;;;4819061;28;20266;-77
2021/04/19 09:39:51;;;;;;;2.10;2.00;;;14.30;1.00;;;;;;4819749;28;20300;-76
2021/04/19 09:42:15;;;;;;;1.80;1.70;;;13.20;99.90;;;;;;4819158;28;20231;-74
2021/04/19 09:44:50;;;;;;;1.87;1.77;;;13.00;1.00;;;;;;4819672;28;20191;-75
2021/04/19 09:47:12;;;;;;;4.60;4.30;;;12.70;1.00;;;;;;4819508;28;20207;-83
2021/04/19 09:49:36;;;;;;;5.00;4.67;;;12.50;23.60;;;;;;4820514;28;20179;-75
2021/04/19 09:51:58;;;;;;;3.47;3.23;;;12.50;1.00;;;;;;4816485;28;20207;-75
2021/04/19 09:54:23;;;;;;;2.77;2.57;;;12.60;1.00;;;;;;4803441;28;20255;-76
2021/04/19 09:56:49;;;;;;;2.10;2.00;;;12.50;1.00;;;;;;4810325;28;21009;-76
2021/04/19 09:59:16;;;;;;;4.60;4.30;;;12.60;1.00;;;;;;4809832;28;20203;-82
2021/04/19 10:01:38;;;;;;;2.20;2.10;;;12.00;1.00;;;;;;4817025;28;20266;-77
2021/04/19 10:04:01;;;;;;;2.97;2.77;;;;;;;;;;4817877;28;20199;-76
2021/04/19 10:06:25;;;;;;;2.47;2.27;;;12.20;1.00;;;;;;4814894;28;20204;-76
2021/04/19 10:09:01;;;;;;;4.00;3.70;;;12.00;1.00;;;;;;4817862;28;20282;-74
2021/04/19 10:11:26;;;;;;;3.43;3.20;;;11.80;99.90;;;;;;4810381;28;20677;-75
2021/04/19 10:13:49;;;;;;;4.27;3.97;;;11.70;1.00;;;;;;4799077;28;20564;-83
2021/04/19 10:16:13;;;;;;;4.97;4.57;;;11.40;99.90;;;;;;4814537;28;20195;-77
2021/04/19 10:18:36;;;;;;;7.33;6.77;;;11.30;1.00;;;;;;4819416;28;20242;-77
2021/04/19 10:20:59;;;;;;;5.10;4.70;;;11.90;1.00;;;;;;4801852;28;20733;-74
2021/04/19 10:23:23;;;;;;;3.97;3.67;;;10.70;99.90;;;;;;4815419;28;20254;-75
2021/04/19 10:25:46;;;;;;;3.77;3.53;;;11.30;99.90;;;;;;4832732;28;21036;-75
2021/04/19 10:28:09;;;;;;;8.20;7.53;;;11.30;99.90;;;;;;4815438;28;20235;-75
2021/04/19 10:30:32;;;;;;;4.97;4.57;;;11.30;99.90;;;;;;4805540;28;20195;-76
2021/04/19 10:32:54;;;;;;;2.80;2.60;;;;;;;;;;4816031;28;20653;-79
2021/04/19 10:35:30;;;;;;;3.87;3.57;;;10.90;1.00;;;;;;4819537;28;20207;-83
2021/04/19 10:37:52;;;;;;;3.33;3.13;;;;;;;;;;4804520;28;20203;-83
2021/04/19 10:40:15;;;;;;;4.47;4.07;;;11.00;99.90;;;;;;4800829;28;20203;-80
2021/04/19 10:42:37;;;;;;;3.77;3.47;;;;;;;;;;4794695;28;20187;-80
2021/04/19 10:45:08;;;;;;;2.80;2.60;;;11.20;1.00;;;;;;4815291;28;20191;-79
2021/04/19 10:47:33;;;;;;;3.20;3.00;;;11.40;99.90;;;;;;4807544;28;20663;-79
2021/04/19 10:49:55;;;;;;;3.33;3.03;;;12.00;99.90;;;;;;4798617;28;20196;-76
2021/04/19 10:52:17;;;;;;;3.67;3.43;;;11.20;99.90;;;;;;4817583;28;20222;-76
2021/04/19 10:54:41;;;;;;;2.90;2.70;;;11.40;1.00;;;;;;4814831;28;20635;-78
2021/04/19 10:57:05;;;;;;;3.23;3.00;;;11.50;99.90;;;;;;4811907;28;20203;-76
2021/04/19 10:59:29;;;;;;;3.67;3.37;;;11.50;99.90;;;;;;4816327;28;20269;-77
2021/04/19 11:02:02;;;;;;;3.10;2.90;;;11.40;1.00;;;;;;4817741;28;20188;-78
2021/04/19 11:04:26;;;;;;;3.03;2.83;;;11.20;1.00;;;;;;4812439;28;20200;-80
2021/04/19 11:06:48;;;;;;;3.43;3.23;;;;;;;;;;4817490;28;20526;-74
2021/04/19 11:09:17;;;;;;;4.17;3.87;;;11.20;1.00;;;;;;4817961;28;20258;-74
2021/04/19 11:11:41;;;;;;;3.63;3.40;;;10.90;99.90;;;;;;4817954;28;20769;-74
2021/04/19 11:14:10;;;;;;;3.97;3.63;;;10.80;99.90;;;;;;4802961;28;20262;-75
2021/04/19 11:16:32;;;;;;;3.80;3.50;;;10.50;99.90;;;;;;4782928;28;20196;-73
2021/04/19 11:18:54;;;;;;;4.33;3.93;;;;;;;;;;4798563;28;20631;-76
2021/04/19 11:21:32;;;;;;;4.27;3.93;;;10.50;99.90;;;;;;4798371;28;20188;-77
2021/04/19 11:24:08;;;;;;;4.50;4.17;;;9.80;1.00;;;;;;4797568;28;20219;-75
2021/04/19 11:26:32;;;;;;;4.87;4.47;;;10.60;99.90;;;;;;4817624;28;20242;-79
2021/04/19 11:28:54;;;;;;;5.73;5.10;;;10.60;1.00;;;;;;4817324;28;20269;-75
2021/04/19 11:31:19;;;;;;;5.57;5.10;;;10.70;1.00;;;;;;4809052;28;20918;-77
2021/04/19 11:33:41;;;;;;;4.60;4.23;;;;;;;;;;4814204;28;20187;-77
2021/04/19 11:36:06;;;;;;;4.90;4.50;;;11.00;1.00;;;;;;4817160;28;20579;-76
2021/04/19 11:38:30;;;;;;;4.57;4.17;;;11.30;99.90;;;;;;4817947;28;20188;-79
2021/04/19 11:40:53;;;;;;;4.77;4.33;;;11.50;1.00;;;;;;4807923;28;20231;-79
2021/04/19 11:43:20;;;;;;;4.07;3.73;;;11.70;1.00;;;;;;4815541;28;20734;-76
2021/04/19 11:45:42;;;;;;;4.37;4.07;;;;;;;;;;4817327;28;20410;-79
2021/04/19 11:48:05;;;;;;;3.87;3.57;;;11.80;1.00;;;;;;4815859;28;20219;-75
2021/04/19 11:50:30;;;;;;;3.63;3.33;;;;;;;;;;4817040;28;20696;-75
2021/04/19 11:52:52;;;;;;;3.47;3.23;;;12.10;1.00;;;;;;4815542;28;20250;-78
2021/04/19 11:55:17;;;;;;;3.60;3.30;;;12.40;1.00;;;;;;4790220;28;20666;-75
2021/04/19 11:57:41;;;;;;;3.17;2.97;;;;;;;;;;4817731;28;20238;-75
2021/04/19 12:00:03;;;;;;;3.03;2.83;;;13.60;32.00;;;;;;4817155;28;20265;-77
2021/04/19 12:02:35;;;;;;;3.10;2.83;;;13.50;1.00;;;;;;4814841;28;20254;-75
2021/04/19 12:04:57;;;;;;;2.47;2.30;;;;;;;;;;4817151;28;20195;-76
2021/04/19 12:07:19;;;;;;;2.27;2.17;;;16.00;1.00;;;;;;4816896;28;20261;-77
2021/04/19 12:09:42;;;;;;;1.47;1.37;;;;;;;;;;4811021;28;20189;-77
2021/04/19 12:12:06;;;;;;;0.80;0.80;;;20.50;1.00;;;;;;4809251;28;20234;-78
2021/04/19 12:14:28;;;;;;;0.77;0.77;;;;;;;;;;4815269;28;20188;-76
2021/04/19 12:16:51;;;;;;;2.50;1.97;;;22.80;1.00;;;;;;4815279;28;20185;-76
2021/04/19 12:19:13;;;;;;;0.97;0.87;;;22.90;1.00;;;;;;4814976;28;20760;-77
2021/04/19 12:21:35;;;;;;;0.70;0.70;;;23.50;1.00;;;;;;4817229;28;20233;-76
2021/04/19 12:23:57;;;;;;;0.50;0.50;;;22.20;1.00;;;;;;4819044;28;20195;-77
2021/04/19 12:26:19;;;;;;;0.80;0.73;;;22.40;1.00;;;;;;4819557;28;20741;-76
2021/04/19 12:28:43;;;;;;;0.40;0.40;;;21.50;1.00;;;;;;4803958;28;20694;-75
2021/04/19 12:31:06;;;;;;;0.80;0.70;;;;;;;;;;4819342;28;20200;-78
2021/04/19 12:33:29;;;;;;;0.57;0.57;;;;;;;;;;4792854;28;20717;-77
2021/04/19 12:35:51;;;;;;;0.67;0.67;;;19.10;1.00;;;;;;4818822;28;20210;-78
2021/04/19 12:38:14;;;;;;;0.77;0.77;;;18.70;1.00;;;;;;4819201;28;20196;-79
2021/04/19 12:40:36;;;;;;;0.53;0.53;;;;;;;;;;4819390;28;20212;-80
2021/04/19 12:42:59;;;;;;;0.50;0.50;;;;;;;;;;4803653;28;20260;-77
2021/04/19 12:45:24;;;;;;;0.70;0.70;;;16.90;1.00;;;;;;4816866;28;20195;-79
2021/04/19 12:47:46;;;;;;;0.80;0.80;;;;;;;;;;4816705;28;20318;-76